Time;durP1;ratioP1;P1;durP2;ratioP2;P2;SDS_P1;SDS_P2;PMS_P1;PMS_P2;Temp;Humidity;BMP_temperature;BMP_pressure;BME280_temperature;BME280_humidity;BME280_pressure;Samples;Min_cycle;Max_cycle;Signal;HPM_P1;HPM_P2
2022/09/06 00:01:18;;;;;;;417.77;194.03;;;;;;;;;;5051039;28;20273;-53
2022/09/06 00:03:45;;;;;;;427.27;205.13;;;;;;;;;;5052842;28;20203;-53
2022/09/06 00:06:12;;;;;;;474.77;228.53;;;;;;;;;;5050377;28;20206;-53
2022/09/06 00:08:38;;;;;;;426.67;202.07;;;;;;;;;;5056664;28;20723;-53
2022/09/06 00:11:05;;;;;;;407.23;191.43;;;;;;;;;;5053087;28;20212;-54
2022/09/06 00:13:31;;;;;;;388.43;190.40;;;;;;;;;;5050323;28;20210;-53
2022/09/06 00:16:03;;;;;;;372.30;185.07;;;;;;;;;;5057187;28;20191;-53
2022/09/06 00:18:29;;;;;;;383.30;183.77;;;;;;;;;;5049125;28;20223;-53
2022/09/06 00:20:55;;;;;;;439.80;209.30;;;;;;;;;;5053844;28;20179;-53
2022/09/06 00:23:21;;;;;;;394.13;192.33;;;;;;;;;;5057328;28;20759;-53
2022/09/06 00:25:47;;;;;;;450.83;208.83;;;;;;;;;;5047621;28;20214;-54
2022/09/06 00:28:12;;;;;;;361.53;178.10;;;;;;;;;;5053629;28;20191;-53
2022/09/06 00:30:38;;;;;;;391.97;188.77;;;;;;;;;;5051910;28;20193;-53
2022/09/06 00:33:04;;;;;;;436.47;198.80;;;;;;;;;;5054112;28;20635;-53
2022/09/06 00:35:30;;;;;;;436.53;205.80;;;;;;;;;;5056895;28;20622;-53
2022/09/06 00:37:58;;;;;;;450.80;200.97;;;;;;;;;;5049490;28;20210;-54
2022/09/06 00:40:23;;;;;;;379.30;176.30;;;;;;;;;;5058631;28;20816;-53
2022/09/06 00:42:50;;;;;;;407.13;194.37;;;;;;;;;;5052925;28;20297;-53
2022/09/06 00:45:16;;;;;;;430.03;213.57;;;;;;;;;;5059573;28;20261;-53
2022/09/06 00:47:43;;;;;;;420.43;209.30;;;;;;;;;;5056386;28;20271;-53
2022/09/06 00:50:12;;;;;;;424.90;196.47;;;;;;;;;;5059814;28;20547;-54
2022/09/06 00:52:39;;;;;;;428.73;197.27;;;;;;;;;;5054584;28;20210;-53
2022/09/06 00:55:05;;;;;;;389.90;184.47;;;;;;;;;;5055967;28;20263;-54
2022/09/06 00:57:31;;;;;;;571.80;245.13;;;;;;;;;;5053040;28;20183;-53
2022/09/06 00:59:58;;;;;;;440.40;200.80;;;;;;;;;;5053274;28;20191;-53
2022/09/06 01:02:24;;;;;;;432.00;198.67;;;;;;;;;;5053181;28;20420;-53
2022/09/06 01:04:50;;;;;;;398.47;193.80;;;;;;;;;;5053814;28;20654;-53
2022/09/06 01:07:31;;;;;;;380.57;184.80;;;;;;;;;;5052148;28;20219;-53
2022/09/06 01:10:12;;;;;;;465.00;213.93;;;;;;;;;;5057535;28;20607;-53
2022/09/06 01:12:57;;;;;;;428.07;199.57;;;;;;;;;;5053505;28;20191;-53
2022/09/06 01:15:24;;;;;;;432.67;206.90;;;;;;;;;;5052657;28;20206;-53
2022/09/06 01:17:56;;;;;;;388.63;180.10;;;;;;;;;;5061319;28;20567;-53
2022/09/06 01:20:22;;;;;;;377.17;176.03;;;;;;;;;;5062465;28;20213;-53
2022/09/06 01:22:48;;;;;;;431.20;196.13;;;;;;;;;;5052687;28;20183;-53
2022/09/06 01:25:32;;;;;;;398.63;187.57;;;;;;;;;;5061095;28;20203;-53
2022/09/06 01:28:10;;;;;;;422.10;190.77;;;;;;;;;;5053163;28;20859;-53
2022/09/06 01:30:38;;;;;;;439.77;194.70;;;;;;;;;;5050935;28;20179;-53
2022/09/06 01:33:16;;;;;;;435.53;193.83;;;;;;;;;;5053509;28;20217;-53
2022/09/06 01:35:49;;;;;;;454.93;204.40;;;;;;;;;;5055334;28;20253;-53
2022/09/06 01:38:16;;;;;;;419.47;189.73;;;;;;;;;;5054647;28;20655;-53
2022/09/06 01:40:42;;;;;;;429.83;197.60;;;;;;;;;;5057008;28;20181;-53
2022/09/06 01:43:10;;;;;;;441.67;203.80;;;;;;;;;;5055583;28;20175;-53
2022/09/06 01:45:45;;;;;;;436.90;207.50;;;;;;;;;;5050532;28;20261;-53
2022/09/06 01:48:29;;;;;;;454.87;206.17;;;;;;;;;;5046469;28;20190;-53
2022/09/06 01:51:07;;;;;;;414.20;194.70;;;;;;;;;;5053403;28;20183;-53
2022/09/06 01:53:39;;;;;;;394.60;186.93;;;;;;;;;;5054131;28;20318;-53
2022/09/06 01:56:14;;;;;;;414.07;198.83;;;;;;;;;;5054517;28;20198;-53
2022/09/06 01:58:59;;;;;;;418.73;202.30;;;;;;;;;;5061379;28;20272;-53
2022/09/06 02:01:29;;;;;;;393.80;182.73;;;;;;;;;;5053522;28;20187;-53
2022/09/06 02:03:57;;;;;;;418.43;197.87;;;;;;;;;;5055408;28;20211;-53
2022/09/06 02:06:27;;;;;;;428.80;198.00;;;;;;;;;;5053763;28;21422;-53
2022/09/06 02:08:55;;;;;;;412.77;189.07;;;;;;;;;;5052158;28;20187;-53
2022/09/06 02:11:21;;;;;;;389.77;182.93;;;;;;;;;;5054642;28;20241;-53
2022/09/06 02:13:50;;;;;;;414.60;197.77;;;;;;;;;;5058841;28;20257;-53
2022/09/06 02:16:20;;;;;;;384.83;187.50;;;;;;;;;;5055667;28;20734;-53
2022/09/06 02:18:51;;;;;;;433.97;198.37;;;;;;;;;;5060415;28;20190;-53
2022/09/06 02:21:20;;;;;;;412.27;189.17;;;;;;;;;;5049929;28;20197;-53
2022/09/06 02:23:46;;;;;;;409.87;196.53;;;;;;;;;;5066538;22;20256;-69
2022/09/06 02:26:16;;;;;;;415.77;199.63;;;;;;;;;;5016340;28;20693;-69
2022/09/06 02:28:42;;;;;;;363.63;174.53;;;;;;;;;;5019851;28;20238;-69
2022/09/06 02:31:12;;;;;;;355.90;172.30;;;;;;;;;;5016398;28;20642;-69
2022/09/06 02:33:38;;;;;;;370.07;173.90;;;;;;;;;;5016009;28;20287;-69
2022/09/06 02:36:05;;;;;;;406.20;189.90;;;;;;;;;;5019187;28;20195;-69
2022/09/06 02:38:32;;;;;;;332.17;163.20;;;;;;;;;;5018344;28;20188;-71
2022/09/06 02:40:58;;;;;;;371.43;176.73;;;;;;;;;;5019304;28;20193;-69
2022/09/06 02:43:24;;;;;;;366.17;174.20;;;;;;;;;;5018885;28;20620;-69
2022/09/06 02:45:50;;;;;;;371.30;181.77;;;;;;;;;;5017411;28;20181;-69
2022/09/06 02:48:16;;;;;;;413.50;199.53;;;;;;;;;;5013430;28;20185;-69
2022/09/06 02:50:42;;;;;;;379.40;180.70;;;;;;;;;;5025995;28;20184;-69
2022/09/06 02:53:09;;;;;;;373.57;177.23;;;;;;;;;;5014559;28;20207;-69
2022/09/06 02:55:35;;;;;;;409.67;193.13;;;;;;;;;;5018384;28;20234;-69
2022/09/06 02:58:01;;;;;;;371.27;174.90;;;;;;;;;;5017242;28;20283;-69
2022/09/06 03:00:27;;;;;;;350.53;165.63;;;;;;;;;;5016311;28;20565;-69
2022/09/06 03:02:54;;;;;;;379.53;177.80;;;;;;;;;;5020615;28;20188;-69
2022/09/06 03:05:20;;;;;;;340.10;161.10;;;;;;;;;;5021128;28;20200;-68
2022/09/06 03:07:46;;;;;;;388.27;180.00;;;;;;;;;;5015098;28;20215;-69
2022/09/06 03:10:12;;;;;;;331.33;155.80;;;;;;;;;;5017614;28;22437;-68
2022/09/06 03:12:38;;;;;;;377.67;176.27;;;;;;;;;;5016880;28;20210;-69
2022/09/06 03:15:04;;;;;;;392.43;181.33;;;;;;;;;;5010246;28;20251;-69
2022/09/06 03:17:30;;;;;;;324.73;152.60;;;;;;;;;;5032999;28;20238;-69
2022/09/06 03:19:56;;;;;;;382.77;178.87;;;;;;;;;;5013454;28;20537;-68
2022/09/06 03:22:22;;;;;;;336.13;159.73;;;;;;;;;;5012711;28;20189;-69
2022/09/06 03:24:48;;;;;;;365.93;171.47;;;;;;;;;;5013845;28;20228;-69
2022/09/06 03:27:13;;;;;;;365.03;168.63;;;;;;;;;;5017541;28;20208;-69
2022/09/06 03:29:39;;;;;;;370.87;173.40;;;;;;;;;;5009055;28;20239;-69
2022/09/06 03:32:05;;;;;;;349.73;160.57;;;;;;;;;;5014972;28;20622;-69
2022/09/06 03:34:31;;;;;;;321.00;150.67;;;;;;;;;;5022373;28;20208;-69
2022/09/06 03:36:57;;;;;;;389.83;180.43;;;;;;;;;;5016462;28;21341;-69
2022/09/06 03:39:23;;;;;;;366.63;169.70;;;;;;;;;;5013394;28;20222;-69
2022/09/06 03:41:49;;;;;;;360.23;169.77;;;;;;;;;;5014705;28;20197;-69
2022/09/06 03:44:15;;;;;;;393.77;185.87;;;;;;;;;;5014520;28;20629;-70
2022/09/06 03:46:41;;;;;;;342.90;162.90;;;;;;;;;;5018341;28;20211;-69
2022/09/06 03:49:09;;;;;;;360.77;168.87;;;;;;;;;;5013746;28;20310;-69
2022/09/06 03:51:35;;;;;;;356.87;163.40;;;;;;;;;;5033049;28;20180;-69
2022/09/06 03:54:01;;;;;;;372.50;173.47;;;;;;;;;;5015553;28;20227;-69
2022/09/06 03:56:26;;;;;;;379.10;180.27;;;;;;;;;;5011903;28;20219;-69
2022/09/06 03:58:53;;;;;;;384.97;179.47;;;;;;;;;;5011370;28;20180;-69
2022/09/06 04:01:19;;;;;;;359.83;169.47;;;;;;;;;;5016656;28;20184;-69
2022/09/06 04:03:45;;;;;;;395.73;184.83;;;;;;;;;;5016166;28;20488;-69
2022/09/06 04:06:11;;;;;;;373.37;170.37;;;;;;;;;;5017858;28;20682;-69
2022/09/06 04:08:37;;;;;;;348.77;162.33;;;;;;;;;;5016070;28;20184;-70
2022/09/06 04:11:04;;;;;;;370.63;172.70;;;;;;;;;;5015795;28;20207;-69
2022/09/06 04:13:30;;;;;;;403.80;188.37;;;;;;;;;;5013397;28;20671;-70
2022/09/06 04:15:56;;;;;;;383.63;179.90;;;;;;;;;;5013762;28;20263;-69
2022/09/06 04:18:22;;;;;;;372.60;172.13;;;;;;;;;;5013812;28;20193;-68
2022/09/06 04:20:49;;;;;;;370.80;170.87;;;;;;;;;;5013504;28;21383;-70
2022/09/06 04:23:15;;;;;;;341.50;161.53;;;;;;;;;;5019396;28;20193;-69
2022/09/06 04:25:44;;;;;;;388.17;181.60;;;;;;;;;;5014709;28;20207;-69
2022/09/06 04:28:10;;;;;;;367.60;169.83;;;;;;;;;;5019120;28;20180;-69
2022/09/06 04:30:36;;;;;;;377.57;174.37;;;;;;;;;;5019815;28;20184;-69
2022/09/06 04:33:02;;;;;;;383.30;174.20;;;;;;;;;;5020192;28;20565;-69
2022/09/06 04:35:28;;;;;;;357.57;165.43;;;;;;;;;;5023297;28;20180;-69
2022/09/06 04:37:54;;;;;;;379.30;174.23;;;;;;;;;;5020652;28;20192;-69
2022/09/06 04:40:20;;;;;;;346.50;159.20;;;;;;;;;;5023654;28;20319;-69
2022/09/06 04:42:46;;;;;;;353.70;166.17;;;;;;;;;;5017613;28;20191;-69
2022/09/06 04:45:11;;;;;;;357.87;167.23;;;;;;;;;;5018151;28;20208;-69
2022/09/06 04:47:37;;;;;;;326.80;153.90;;;;;;;;;;5020353;28;20823;-69
2022/09/06 04:50:03;;;;;;;362.07;165.80;;;;;;;;;;5015255;28;20271;-69
2022/09/06 04:52:29;;;;;;;335.30;157.07;;;;;;;;;;5020307;28;20264;-70
2022/09/06 04:54:55;;;;;;;388.67;181.17;;;;;;;;;;5018012;28;20218;-69
2022/09/06 04:57:21;;;;;;;405.93;188.70;;;;;;;;;;5015216;28;20193;-70
2022/09/06 04:59:47;;;;;;;386.87;180.33;;;;;;;;;;5011570;28;20247;-69
2022/09/06 05:02:13;;;;;;;360.20;168.07;;;;;;;;;;5020869;28;20188;-68
2022/09/06 05:04:39;;;;;;;361.70;168.63;;;;;;;;;;5018651;28;20239;-69
2022/09/06 05:07:07;;;;;;;388.10;180.73;;;;;;;;;;5015635;28;20796;-68
2022/09/06 05:09:33;;;;;;;411.17;191.63;;;;;;;;;;5011925;28;20852;-68
2022/09/06 05:11:59;;;;;;;389.83;178.97;;;;;;;;;;5019192;28;20231;-70
2022/09/06 05:14:26;;;;;;;456.70;212.63;;;;;;;;;;4996879;28;20255;-69
2022/09/06 05:16:52;;;;;;;574.63;267.13;;;;;;;;;;5004979;28;20192;-69
2022/09/06 05:19:18;;;;;;;358.87;166.63;;;;;;;;;;5011725;28;20710;-68
2022/09/06 05:21:44;;;;;;;416.47;194.77;;;;;;;;;;5020453;28;20569;-68
2022/09/06 05:24:10;;;;;;;430.20;197.97;;;;;;;;;;5010960;28;20236;-69
2022/09/06 05:26:36;;;;;;;382.30;179.73;;;;;;;;;;4996360;28;20228;-69
2022/09/06 05:29:02;;;;;;;366.20;169.17;;;;;;;;;;5017330;28;20596;-69
2022/09/06 05:31:29;;;;;;;358.57;167.57;;;;;;;;;;5023552;28;20235;-68
2022/09/06 05:33:56;;;;;;;435.20;202.20;;;;;;;;;;5010305;28;20886;-69
2022/09/06 05:36:23;;;;;;;354.10;165.30;;;;;;;;;;5018528;28;20517;-69
2022/09/06 05:38:52;;;;;;;408.77;191.57;;;;;;;;;;5017085;28;20257;-68
2022/09/06 05:41:18;;;;;;;362.03;169.80;;;;;;;;;;5012939;28;20185;-69
2022/09/06 05:43:44;;;;;;;382.13;183.00;;;;;;;;;;5017868;28;20223;-69
2022/09/06 05:46:10;;;;;;;397.37;187.00;;;;;;;;;;5018772;28;20215;-68
2022/09/06 05:48:36;;;;;;;399.77;186.83;;;;;;;;;;5014202;28;20197;-69
2022/09/06 05:51:03;;;;;;;417.13;194.13;;;;;;;;;;5020488;28;20185;-69
2022/09/06 05:53:42;;;;;;;364.67;174.00;;;;;;;;;;5014793;28;20208;-69
2022/09/06 05:56:09;;;;;;;360.00;168.30;;;;;;;;;;5017067;28;20558;-69
2022/09/06 05:58:35;;;;;;;448.70;209.27;;;;;;;;;;5015379;28;20585;-68
2022/09/06 06:01:27;;;;;;;400.50;189.37;;;;;;;;;;5013322;28;20197;-68
2022/09/06 06:03:53;;;;;;;418.50;193.53;;;;;;;;;;5000694;28;20704;-73
2022/09/06 06:06:19;;;;;;;373.93;174.90;;;;;;;;;;5006821;28;20269;-67
2022/09/06 06:08:45;;;;;;;392.27;191.23;;;;;;;;;;5013984;28;20212;-69
2022/09/06 06:11:11;;;;;;;363.87;179.87;;;;;;;;;;5017228;28;20270;-67
2022/09/06 06:13:38;;;;;;;406.90;189.93;;;;;;;;;;5015578;28;20232;-72
2022/09/06 06:16:05;;;;;;;562.20;265.03;;;;;;;;;;5010362;28;20539;-72
2022/09/06 06:18:31;;;;;;;384.20;179.80;;;;;;;;;;4998595;28;20208;-72
2022/09/06 06:21:09;;;;;;;350.20;165.40;;;;;;;;;;5023246;28;20181;-70
2022/09/06 06:23:35;;;;;;;334.00;157.60;;;;;;;;;;5018422;28;20274;-71
2022/09/06 06:26:01;;;;;;;401.97;189.60;;;;;;;;;;5017288;28;20193;-70
2022/09/06 06:28:27;;;;;;;379.80;180.87;;;;;;;;;;5012931;28;20176;-70
2022/09/06 06:30:53;;;;;;;393.73;182.47;;;;;;;;;;5016286;28;20219;-69
2022/09/06 06:33:19;;;;;;;351.70;164.70;;;;;;;;;;5013821;28;20299;-70
2022/09/06 06:35:58;;;;;;;442.27;209.90;;;;;;;;;;5020760;28;20263;-72
2022/09/06 06:38:24;;;;;;;400.90;189.00;;;;;;;;;;5006439;28;20184;-68
2022/09/06 06:40:50;;;;;;;330.40;158.90;;;;;;;;;;5019609;28;20180;-69
2022/09/06 06:43:16;;;;;;;359.40;170.20;;;;;;;;;;5019537;28;20264;-69
2022/09/06 06:45:41;;;;;;;400.77;189.63;;;;;;;;;;5020151;28;20249;-69
2022/09/06 06:48:07;;;;;;;406.47;192.37;;;;;;;;;;5019039;28;20246;-72
2022/09/06 06:50:33;;;;;;;347.03;165.17;;;;;;;;;;5007773;28;20791;-69
2022/09/06 06:52:59;;;;;;;426.83;202.07;;;;;;;;;;5017068;28;20189;-69
2022/09/06 06:55:25;;;;;;;363.37;172.20;;;;;;;;;;5021255;28;20269;-68
2022/09/06 06:57:51;;;;;;;414.83;196.70;;;;;;;;;;5017670;28;20311;-69
2022/09/06 07:00:17;;;;;;;361.90;173.50;;;;;;;;;;5022107;28;20178;-69
2022/09/06 07:02:43;;;;;;;385.30;185.67;;;;;;;;;;5017040;28;20194;-69
2022/09/06 07:05:09;;;;;;;371.70;179.87;;;;;;;;;;5015624;28;20201;-64
2022/09/06 07:07:35;;;;;;;407.00;208.83;;;;;;;;;;5008717;28;20216;-64
2022/09/06 07:10:01;;;;;;;365.73;185.03;;;;;;;;;;5020506;28;20680;-64
2022/09/06 07:12:27;;;;;;;364.93;176.80;;;;;;;;;;5022394;28;20196;-63
2022/09/06 07:14:53;;;;;;;380.90;187.53;;;;;;;;;;5005803;28;20208;-63
2022/09/06 07:17:18;;;;;;;389.03;190.90;;;;;;;;;;5018909;28;20202;-63
2022/09/06 07:19:44;;;;;;;396.57;198.13;;;;;;;;;;5012478;28;20200;-63
2022/09/06 07:22:10;;;;;;;362.20;179.40;;;;;;;;;;5014031;28;20673;-63
2022/09/06 07:24:36;;;;;;;431.97;213.07;;;;;;;;;;5017474;28;20331;-64
2022/09/06 07:27:02;;;;;;;374.83;180.63;;;;;;;;;;5017927;28;20197;-63
2022/09/06 07:29:28;;;;;;;382.40;187.30;;;;;;;;;;5008424;28;20218;-64
2022/09/06 07:31:56;;;;;;;372.57;184.33;;;;;;;;;;5021119;28;20650;-63
2022/09/06 07:34:24;;;;;;;403.83;196.87;;;;;;;;;;5013169;28;20196;-63
2022/09/06 07:36:54;;;;;;;368.70;182.67;;;;;;;;;;5015652;28;20191;-63
2022/09/06 07:39:20;;;;;;;381.80;188.23;;;;;;;;;;5016269;28;20577;-71
2022/09/06 07:41:46;;;;;;;374.70;187.30;;;;;;;;;;5016090;28;20729;-70
2022/09/06 07:44:12;;;;;;;399.47;194.57;;;;;;;;;;5014381;28;20322;-70
2022/09/06 07:46:38;;;;;;;387.17;192.27;;;;;;;;;;5021526;28;20250;-71
2022/09/06 07:49:04;;;;;;;348.93;173.33;;;;;;;;;;5021584;28;20212;-69
2022/09/06 07:51:30;;;;;;;400.43;198.70;;;;;;;;;;5012930;28;20209;-69
2022/09/06 07:53:57;;;;;;;444.67;218.43;;;;;;;;;;5013677;28;20204;-69
2022/09/06 07:56:23;;;;;;;384.70;189.47;;;;;;;;;;5018682;28;20191;-71
2022/09/06 07:58:49;;;;;;;454.83;222.43;;;;;;;;;;5003940;28;20547;-71
2022/09/06 08:01:15;;;;;;;353.20;174.57;;;;;;;;;;5009129;28;20192;-72
2022/09/06 08:03:41;;;;;;;349.23;174.90;;;;;;;;;;5011418;28;20208;-71
2022/09/06 08:06:07;;;;;;;351.87;175.30;;;;;;;;;;5010623;28;20217;-69
2022/09/06 08:08:34;;;;;;;397.20;197.73;;;;;;;;;;5006985;28;20198;-73
2022/09/06 08:11:00;;;;;;;397.47;196.40;;;;;;;;;;5012729;28;20184;-75
2022/09/06 08:13:26;;;;;;;338.73;172.57;;;;;;;;;;5013832;28;20209;-69
2022/09/06 08:15:59;;;;;;;390.77;194.50;;;;;;;;;;5017863;28;20279;-70
2022/09/06 08:18:24;;;;;;;399.47;197.70;;;;;;;;;;5011492;28;20680;-66
2022/09/06 08:20:50;;;;;;;452.67;225.60;;;;;;;;;;5008287;28;20184;-71
2022/09/06 08:23:16;;;;;;;428.77;213.73;;;;;;;;;;5005326;28;20191;-70
2022/09/06 08:25:42;;;;;;;440.20;224.60;;;;;;;;;;5045514;23;20232;-82
2022/09/06 08:28:08;;;;;;;397.17;197.27;;;;;;;;;;5025868;28;20269;-79
2022/09/06 08:30:34;;;;;;;443.10;227.40;;;;;;;;;;5016231;28;20188;-82
2022/09/06 08:33:02;;;;;;;404.75;203.02;;;;;;;;;;5017535;28;20208;-77
2022/09/06 08:35:27;;;;;;;383.52;194.38;;;;;;;;;;5024458;28;20680;-78
2022/09/06 08:37:56;;;;;;;405.27;211.53;;;;;;;;;;5030392;28;20279;-78
2022/09/06 08:40:23;;;;;;;392.37;207.03;;;;;;;;;;5037273;28;20184;-80
2022/09/06 08:42:49;;;;;;;413.10;220.17;;;;;;;;;;5042504;28;20594;-78
2022/09/06 08:45:22;;;;;;;385.88;203.15;;;;;;;;;;5041820;28;23346;-77
2022/09/06 08:47:49;;;;;;;410.10;219.47;;;;;;;;;;5037706;28;20237;-78
2022/09/06 08:50:16;;;;;;;364.15;197.45;;;;;;;;;;5037370;28;20181;-78
2022/09/06 08:53:06;;;;;;;450.10;238.57;;;;;;;;;;5030449;28;20695;-78
2022/09/06 08:55:35;;;;;;;377.27;201.80;;;;;;;;;;5043935;28;20332;-78
2022/09/06 08:58:24;;;;;;;402.73;211.68;;;;;;;;;;5039206;28;20195;-78
2022/09/06 09:00:57;;;;;;;355.30;190.57;;;;;;;;;;5038220;28;20560;-76
2022/09/06 09:03:25;;;;;;;383.10;203.18;;;;;;;;;;5042049;28;20198;-77
2022/09/06 09:05:53;;;;;;;400.77;212.93;;;;;;;;;;5040927;28;20210;-79
2022/09/06 09:08:24;;;;;;;443.67;233.60;;;;;;;;;;5049658;28;20182;-79
2022/09/06 09:11:05;;;;;;;361.45;195.60;;;;;;;;;;5047986;28;20183;-77
2022/09/06 09:13:50;;;;;;;395.90;211.90;;;;;;;;;;5038786;28;20310;-79
2022/09/06 09:16:16;;;;;;;399.27;214.60;;;;;;;;;;5039227;28;20222;-79
2022/09/06 09:18:44;;;;;;;445.63;239.68;;;;;;;;;;5035474;28;20490;-79
2022/09/06 09:21:10;;;;;;;406.23;217.55;;;;;;;;;;5041536;28;20180;-79
2022/09/06 09:23:37;;;;;;;395.52;215.00;;;;;;;;;;5042145;28;20944;-79
2022/09/06 09:26:04;;;;;;;406.83;225.77;;;;;;;;;;5055805;28;20255;-79
2022/09/06 09:28:30;;;;;;;408.65;225.95;;;;;;;;;;5040902;28;20196;-79
2022/09/06 09:30:57;;;;;;;401.85;218.52;;;;;;;;;;5043161;28;20186;-79
2022/09/06 09:33:23;;;;;;;377.17;208.93;;;;;;;;;;5039318;28;20278;-79
2022/09/06 09:35:49;;;;;;;378.88;210.40;;;;;;;;;;5039650;28;20717;-78
2022/09/06 09:38:30;;;;;;;404.73;228.57;;;;;;;;;;5045268;28;20188;-79
2022/09/06 09:41:06;;;;;;;395.67;225.68;;;;;;;;;;5044160;28;20241;-78
2022/09/06 09:43:36;;;;;;;360.80;201.75;;;;;;;;;;5038178;28;20852;-79
2022/09/06 09:46:10;;;;;;;363.02;203.38;;;;;;;;;;5046139;28;20188;-79
2022/09/06 09:48:37;;;;;;;364.55;210.02;;;;;;;;;;5048708;28;20553;-79
2022/09/06 09:51:17;;;;;;;387.83;215.00;;;;;;;;;;5046941;28;20214;-79
2022/09/06 09:53:50;;;;;;;397.20;220.85;;;;;;;;;;5048211;28;20616;-79
2022/09/06 09:56:16;;;;;;;374.92;216.10;;;;;;;;;;5042116;28;20207;-79
2022/09/06 09:58:42;;;;;;;365.52;212.07;;;;;;;;;;5041771;28;20221;-78
2022/09/06 10:01:16;;;;;;;405.95;228.30;;;;;;;;;;5039586;28;20191;-75
2022/09/06 10:03:42;;;;;;;437.50;242.52;;;;;;;;;;5042323;28;20175;-78
2022/09/06 10:06:11;;;;;;;431.17;237.43;;;;;;;;;;5043654;28;20191;-77
2022/09/06 10:08:39;;;;;;;365.23;214.20;;;;;;;;;;5040419;28;20241;-76
2022/09/06 10:11:05;;;;;;;406.17;235.55;;;;;;;;;;5038565;28;20241;-77
2022/09/06 10:13:33;;;;;;;361.75;211.65;;;;;;;;;;5041190;28;20192;-77
2022/09/06 10:16:01;;;;;;;398.00;228.23;;;;;;;;;;5040706;28;20198;-78
2022/09/06 10:18:33;;;;;;;417.50;238.38;;;;;;;;;;5035682;28;20190;-73
2022/09/06 10:21:04;;;;;;;378.80;219.80;;;;;;;;;;5041401;28;20184;-76
2022/09/06 10:23:49;;;;;;;455.05;256.85;;;;;;;;;;5034577;28;20183;-75
2022/09/06 10:26:20;;;;;;;396.95;225.98;;;;;;;;;;5041331;28;20557;-76
2022/09/06 10:28:46;;;;;;;408.35;244.20;;;;;;;;;;5034721;28;20263;-79
2022/09/06 10:31:28;;;;;;;495.98;290.35;;;;;;;;;;5035854;28;20212;-78
2022/09/06 10:34:16;;;;;;;382.63;229.05;;;;;;;;;;5033812;28;20214;-77
2022/09/06 10:37:01;;;;;;;490.23;280.85;;;;;;;;;;5034009;28;20643;-76
2022/09/06 10:39:45;;;;;;;451.58;255.40;;;;;;;;;;5034044;28;20184;-78
2022/09/06 10:42:20;;;;;;;538.22;297.20;;;;;;;;;;5034687;28;20184;-76
2022/09/06 10:44:55;;;;;;;402.65;231.45;;;;;;;;;;5039388;28;20219;-84
2022/09/06 10:47:23;;;;;;;400.17;250.07;;;;;;;;;;5043143;28;20210;-82
2022/09/06 10:49:53;;;;;;;412.58;243.60;;;;;;;;;;5040027;28;20187;-81
2022/09/06 10:52:22;;;;;;;379.88;231.82;;;;;;;;;;5041729;28;20180;-83
2022/09/06 10:54:48;;;;;;;394.77;235.65;;;;;;;;;;5049303;28;20195;-81
2022/09/06 10:57:34;;;;;;;375.63;227.10;;;;;;;;;;5042913;28;20183;-81
2022/09/06 11:00:12;;;;;;;398.67;249.98;;;;;;;;;;5030297;28;20253;-83
2022/09/06 11:02:40;;;;;;;372.83;236.30;;;;;;;;;;5045730;28;20238;-83
2022/09/06 11:05:19;;;;;;;411.77;265.55;;;;;;;;;;5048277;28;20203;-84
2022/09/06 11:07:46;;;;;;;394.88;258.05;;;;;;;;;;5054396;28;20682;-84
2022/09/06 11:10:16;;;;;;;394.83;253.13;;;;;;;;;;5046474;28;20184;-87
2022/09/06 11:12:48;;;;;;;370.65;241.02;;;;;;;;;;5059308;28;20283;-83
2022/09/06 11:15:14;;;;;;;370.58;238.80;;;;;;;;;;5046722;28;21946;-81
2022/09/06 11:17:45;;;;;;;370.33;236.38;;;;;;;;;;5041573;28;20175;-82
2022/09/06 11:20:17;;;;;;;369.08;234.45;;;;;;;;;;5049458;28;20266;-83
2022/09/06 11:22:52;;;;;;;371.85;229.77;;;;;;;;;;5046182;28;20575;-84
2022/09/06 11:25:25;;;;;;;374.63;231.80;;;;;;;;;;5062773;28;20314;-82
2022/09/06 11:27:55;;;;;;;387.88;241.63;;;;;;;;;;5045147;28;20192;-82
2022/09/06 11:30:24;;;;;;;439.50;261.83;;;;;;;;;;5037013;28;20175;-84
2022/09/06 11:32:51;;;;;;;365.17;231.60;;;;;;;;;;5041202;28;20548;-82
2022/09/06 11:35:21;;;;;;;383.60;245.05;;;;;;;;;;5051634;28;20237;-84
2022/09/06 11:37:49;;;;;;;378.08;241.40;;;;;;;;;;5044545;28;20175;-84
2022/09/06 11:40:23;;;;;;;369.05;233.65;;;;;;;;;;5044161;28;20636;-82
2022/09/06 11:42:49;;;;;;;406.33;260.63;;;;;;;;;;5041943;28;20191;-80
2022/09/06 11:45:38;;;;;;;357.13;224.27;;;;;;;;;;5051429;28;20210;-84
2022/09/06 11:48:25;;;;;;;393.60;245.30;;;;;;;;;;5048985;28;20203;-83
2022/09/06 11:50:54;;;;;;;404.85;242.15;;;;;;;;;;5043310;28;20167;-81
2022/09/06 11:53:21;;;;;;;378.17;236.27;;;;;;;;;;5040940;28;20172;-81
2022/09/06 11:56:08;;;;;;;405.13;243.80;;;;;;;;;;5042577;28;20218;-82
2022/09/06 11:58:53;;;;;;;382.45;243.63;;;;;;;;;;5012285;28;20192;-84
2022/09/06 12:01:19;;;;;;;411.95;258.55;;;;;;;;;;5046133;28;20322;-82
2022/09/06 12:03:48;;;;;;;370.02;231.40;;;;;;;;;;5047362;28;20823;-82
2022/09/06 12:06:34;;;;;;;366.48;236.23;;;;;;;;;;5043984;28;20309;-83
2022/09/06 12:09:00;;;;;;;432.65;270.42;;;;;;;;;;5044273;28;20183;-81
2022/09/06 12:11:36;;;;;;;393.30;244.88;;;;;;;;;;5049939;28;20278;-81
2022/09/06 12:14:02;;;;;;;392.58;241.85;;;;;;;;;;5052973;28;20205;-82
2022/09/06 12:16:48;;;;;;;371.50;231.70;;;;;;;;;;5054592;28;20210;-81
2022/09/06 12:19:33;;;;;;;390.80;244.68;;;;;;;;;;5050565;28;20179;-81
2022/09/06 12:21:59;;;;;;;356.88;225.07;;;;;;;;;;5043275;28;20192;-81
2022/09/06 12:24:50;;;;;;;395.75;241.85;;;;;;;;;;5047751;28;20285;-83
2022/09/06 12:27:19;;;;;;;372.70;228.55;;;;;;;;;;5046503;28;20226;-81
2022/09/06 12:29:57;;;;;;;379.45;235.68;;;;;;;;;;5035389;28;20187;-81
2022/09/06 12:32:34;;;;;;;406.60;252.10;;;;;;;;;;5043361;28;20210;-80
2022/09/06 12:35:01;;;;;;;374.73;234.85;;;;;;;;;;5049945;28;20199;-80
2022/09/06 12:37:36;;;;;;;403.77;256.10;;;;;;;;;;5049544;28;20278;-80
2022/09/06 12:40:03;;;;;;;379.25;243.82;;;;;;;;;;5049471;28;20221;-80
2022/09/06 12:42:29;;;;;;;375.17;238.15;;;;;;;;;;5048630;28;20180;-80
2022/09/06 12:44:56;;;;;;;374.38;237.07;;;;;;;;;;5048505;28;20207;-82
2022/09/06 12:47:27;;;;;;;436.05;270.80;;;;;;;;;;5041431;28;20250;-79
2022/09/06 12:50:16;;;;;;;427.65;267.90;;;;;;;;;;5056458;28;20175;-78
2022/09/06 12:52:48;;;;;;;409.23;262.13;;;;;;;;;;5042355;28;20182;-79
2022/09/06 12:55:16;;;;;;;456.45;272.88;;;;;;;;;;5036653;28;20269;-81
2022/09/06 12:57:47;;;;;;;453.17;274.17;;;;;;;;;;5033417;28;20192;-77
2022/09/06 13:00:13;;;;;;;508.40;295.95;;;;;;;;;;5037757;28;20187;-83
2022/09/06 13:02:44;;;;;;;398.85;247.63;;;;;;;;;;5033998;28;20191;-79
2022/09/06 13:05:12;;;;;;;391.52;247.27;;;;;;;;;;5041752;28;20199;-80
2022/09/06 13:07:40;;;;;;;379.10;244.52;;;;;;;;;;5043390;28;20211;-79
2022/09/06 13:10:07;;;;;;;401.77;247.52;;;;;;;;;;5041365;28;20175;-79
2022/09/06 13:12:34;;;;;;;406.27;252.82;;;;;;;;;;5045933;28;20191;-80
2022/09/06 13:15:04;;;;;;;366.90;234.35;;;;;;;;;;5044382;28;20250;-78
2022/09/06 13:17:30;;;;;;;372.25;231.50;;;;;;;;;;5043134;28;20532;-78
2022/09/06 13:20:01;;;;;;;469.55;273.10;;;;;;;;;;5044188;28;20177;-79
2022/09/06 13:22:40;;;;;;;369.55;232.35;;;;;;;;;;5040570;28;20196;-80
2022/09/06 13:25:13;;;;;;;391.67;239.07;;;;;;;;;;5059220;28;20583;-78
2022/09/06 13:27:44;;;;;;;419.45;247.00;;;;;;;;;;5038875;28;20294;-79
2022/09/06 13:30:28;;;;;;;398.85;239.90;;;;;;;;;;5041332;28;20183;-81
2022/09/06 13:32:54;;;;;;;378.58;228.35;;;;;;;;;;5039896;28;20266;-80
2022/09/06 13:35:24;;;;;;;399.45;237.23;;;;;;;;;;5060152;28;20278;-82
2022/09/06 13:37:50;;;;;;;409.27;245.55;;;;;;;;;;5055701;28;20429;-79
2022/09/06 13:40:36;;;;;;;403.08;236.02;;;;;;;;;;5035923;28;20588;-80
2022/09/06 13:43:02;;;;;;;428.42;251.45;;;;;;;;;;5056102;28;20592;-79
2022/09/06 13:45:29;;;;;;;374.63;229.38;;;;;;;;;;5047576;28;20211;-76
2022/09/06 13:47:55;;;;;;;383.35;233.50;;;;;;;;;;5042372;28;20203;-76
2022/09/06 13:50:22;;;;;;;397.52;237.02;;;;;;;;;;5055403;28;20186;-76
2022/09/06 13:52:48;;;;;;;373.52;224.02;;;;;;;;;;5038826;28;20176;-76
2022/09/06 13:55:15;;;;;;;422.70;253.15;;;;;;;;;;5038952;28;20199;-76
2022/09/06 13:57:41;;;;;;;374.25;226.85;;;;;;;;;;5042583;28;20214;-76
2022/09/06 14:00:07;;;;;;;406.23;248.23;;;;;;;;;;5038594;28;20743;-76
2022/09/06 14:02:33;;;;;;;402.55;245.27;;;;;;;;;;5032666;28;20213;-76